sensor_id;sensor_type;location;lat;lon;timestamp;P1;durP1;ratioP1;P2;durP2;ratioP2
71814;SDS011;59659;41.520;23.794;2022-08-20T00:00:53;8.80;;;6.33;;
71814;SDS011;59659;41.520;23.794;2022-08-20T00:02:13;9.33;;;6.20;;
71814;SDS011;59659;41.520;23.794;2022-08-20T00:03:26;9.30;;;6.37;;
71814;SDS011;59659;41.520;23.794;2022-08-20T00:04:38;10.60;;;6.33;;
71814;SDS011;59659;41.520;23.794;2022-08-20T00:05:53;10.93;;;6.87;;
71814;SDS011;59659;41.520;23.794;2022-08-20T00:07:07;12.67;;;6.80;;
71814;SDS011;59659;41.520;23.794;2022-08-20T00:08:19;10.10;;;6.57;;
71814;SDS011;59659;41.520;23.794;2022-08-20T00:09:30;9.37;;;6.20;;
71814;SDS011;59659;41.520;23.794;2022-08-20T00:10:47;9.57;;;6.10;;
71814;SDS011;59659;41.520;23.794;2022-08-20T00:12:05;9.60;;;6.30;;
71814;SDS011;59659;41.520;23.794;2022-08-20T00:13:20;12.53;;;7.57;;
71814;SDS011;59659;41.520;23.794;2022-08-20T00:14:32;8.97;;;5.70;;
71814;SDS011;59659;41.520;23.794;2022-08-20T00:15:44;11.20;;;7.23;;
71814;SDS011;59659;41.520;23.794;2022-08-20T00:16:56;12.87;;;7.17;;
71814;SDS011;59659;41.520;23.794;2022-08-20T00:18:10;9.00;;;6.43;;
71814;SDS011;59659;41.520;23.794;2022-08-20T00:19:22;11.53;;;7.07;;
71814;SDS011;59659;41.520;23.794;2022-08-20T00:20:39;8.53;;;6.20;;
71814;SDS011;59659;41.520;23.794;2022-08-20T00:21:50;10.13;;;6.87;;
71814;SDS011;59659;41.520;23.794;2022-08-20T00:23:08;10.53;;;6.63;;
71814;SDS011;59659;41.520;23.794;2022-08-20T00:24:20;8.57;;;6.27;;
71814;SDS011;59659;41.520;23.794;2022-08-20T00:25:32;9.13;;;6.83;;
71814;SDS011;59659;41.520;23.794;2022-08-20T00:26:43;8.83;;;6.07;;
71814;SDS011;59659;41.520;23.794;2022-08-20T00:28:03;12.00;;;7.00;;
71814;SDS011;59659;41.520;23.794;2022-08-20T00:29:15;9.77;;;6.50;;
71814;SDS011;59659;41.520;23.794;2022-08-20T00:30:30;10.33;;;7.33;;
71814;SDS011;59659;41.520;23.794;2022-08-20T00:31:42;10.80;;;7.53;;
71814;SDS011;59659;41.520;23.794;2022-08-20T00:32:55;11.07;;;7.60;;
71814;SDS011;59659;41.520;23.794;2022-08-20T00:34:08;12.93;;;7.53;;
71814;SDS011;59659;41.520;23.794;2022-08-20T00:35:21;12.27;;;7.27;;
71814;SDS011;59659;41.520;23.794;2022-08-20T00:36:33;11.07;;;7.43;;
71814;SDS011;59659;41.520;23.794;2022-08-20T00:37:45;12.20;;;7.40;;
71814;SDS011;59659;41.520;23.794;2022-08-20T00:38:56;11.70;;;8.10;;
71814;SDS011;59659;41.520;23.794;2022-08-20T00:40:08;11.10;;;6.97;;
71814;SDS011;59659;41.520;23.794;2022-08-20T00:41:33;9.63;;;6.83;;
71814;SDS011;59659;41.520;23.794;2022-08-20T00:42:46;9.23;;;6.90;;
71814;SDS011;59659;41.520;23.794;2022-08-20T00:44:11;12.23;;;7.80;;
71814;SDS011;59659;41.520;23.794;2022-08-20T00:45:24;12.60;;;7.30;;
71814;SDS011;59659;41.520;23.794;2022-08-20T00:46:37;9.47;;;6.93;;
71814;SDS011;59659;41.520;23.794;2022-08-20T00:47:48;11.70;;;6.83;;
71814;SDS011;59659;41.520;23.794;2022-08-20T00:49:03;9.30;;;6.53;;
71814;SDS011;59659;41.520;23.794;2022-08-20T00:50:19;13.87;;;7.07;;
71814;SDS011;59659;41.520;23.794;2022-08-20T00:52:52;10.97;;;7.33;;
71814;SDS011;59659;41.520;23.794;2022-08-20T00:55:16;10.27;;;6.23;;
71814;SDS011;59659;41.520;23.794;2022-08-20T00:56:29;9.70;;;6.50;;
71814;SDS011;59659;41.520;23.794;2022-08-20T00:57:42;8.70;;;5.77;;
71814;SDS011;59659;41.520;23.794;2022-08-20T00:59:13;8.53;;;6.17;;
71814;SDS011;59659;41.520;23.794;2022-08-20T01:00:27;10.30;;;6.73;;
71814;SDS011;59659;41.520;23.794;2022-08-20T01:01:39;10.00;;;5.63;;
71814;SDS011;59659;41.520;23.794;2022-08-20T01:03:07;13.63;;;6.60;;
71814;SDS011;59659;41.520;23.794;2022-08-20T01:04:20;10.83;;;6.47;;
71814;SDS011;59659;41.520;23.794;2022-08-20T01:05:31;9.73;;;6.40;;
71814;SDS011;59659;41.520;23.794;2022-08-20T01:06:43;10.90;;;6.60;;
71814;SDS011;59659;41.520;23.794;2022-08-20T01:07:55;15.53;;;6.47;;
71814;SDS011;59659;41.520;23.794;2022-08-20T01:09:07;9.33;;;6.10;;
71814;SDS011;59659;41.520;23.794;2022-08-20T01:10:20;10.87;;;6.87;;
71814;SDS011;59659;41.520;23.794;2022-08-20T01:11:33;13.10;;;6.30;;
71814;SDS011;59659;41.520;23.794;2022-08-20T01:12:48;12.97;;;6.57;;
71814;SDS011;59659;41.520;23.794;2022-08-20T01:14:10;8.90;;;6.40;;
71814;SDS011;59659;41.520;23.794;2022-08-20T01:15:41;8.53;;;6.57;;
71814;SDS011;59659;41.520;23.794;2022-08-20T01:16:55;8.43;;;6.43;;
71814;SDS011;59659;41.520;23.794;2022-08-20T01:18:09;9.60;;;6.17;;
71814;SDS011;59659;41.520;23.794;2022-08-20T01:19:24;9.53;;;6.67;;
71814;SDS011;59659;41.520;23.794;2022-08-20T01:20:42;10.33;;;7.33;;
71814;SDS011;59659;41.520;23.794;2022-08-20T01:21:54;8.90;;;6.33;;
71814;SDS011;59659;41.520;23.794;2022-08-20T01:24:42;10.50;;;7.63;;
71814;SDS011;59659;41.520;23.794;2022-08-20T01:27:10;9.67;;;7.13;;
71814;SDS011;59659;41.520;23.794;2022-08-20T01:28:41;10.33;;;6.93;;
71814;SDS011;59659;41.520;23.794;2022-08-20T01:29:56;8.90;;;6.67;;
71814;SDS011;59659;41.520;23.794;2022-08-20T01:31:09;10.10;;;6.87;;
71814;SDS011;59659;41.520;23.794;2022-08-20T01:32:21;14.03;;;7.07;;
71814;SDS011;59659;41.520;23.794;2022-08-20T01:33:33;10.20;;;7.20;;
71814;SDS011;59659;41.520;23.794;2022-08-20T01:34:44;11.77;;;7.97;;
71814;SDS011;59659;41.520;23.794;2022-08-20T01:35:56;10.27;;;7.00;;
71814;SDS011;59659;41.520;23.794;2022-08-20T01:37:08;10.43;;;7.20;;
71814;SDS011;59659;41.520;23.794;2022-08-20T01:38:20;12.93;;;7.20;;
71814;SDS011;59659;41.520;23.794;2022-08-20T01:39:33;10.97;;;7.20;;
71814;SDS011;59659;41.520;23.794;2022-08-20T01:43:26;12.17;;;7.23;;
71814;SDS011;59659;41.520;23.794;2022-08-20T01:44:47;10.53;;;7.60;;
71814;SDS011;59659;41.520;23.794;2022-08-20T01:46:00;11.33;;;7.13;;
71814;SDS011;59659;41.520;23.794;2022-08-20T01:47:18;13.97;;;7.60;;
71814;SDS011;59659;41.520;23.794;2022-08-20T01:48:30;10.17;;;7.20;;
71814;SDS011;59659;41.520;23.794;2022-08-20T01:49:42;9.87;;;6.80;;
71814;SDS011;59659;41.520;23.794;2022-08-20T01:51:04;9.93;;;6.60;;
71814;SDS011;59659;41.520;23.794;2022-08-20T01:52:30;10.67;;;7.20;;
71814;SDS011;59659;41.520;23.794;2022-08-20T01:53:45;12.07;;;7.07;;
71814;SDS011;59659;41.520;23.794;2022-08-20T01:54:57;10.80;;;7.13;;
71814;SDS011;59659;41.520;23.794;2022-08-20T01:56:10;10.73;;;7.47;;
71814;SDS011;59659;41.520;23.794;2022-08-20T01:57:24;10.67;;;7.03;;
71814;SDS011;59659;41.520;23.794;2022-08-20T01:58:38;13.27;;;7.87;;
71814;SDS011;59659;41.520;23.794;2022-08-20T01:59:50;13.63;;;8.40;;
71814;SDS011;59659;41.520;23.794;2022-08-20T02:01:02;17.27;;;9.20;;
71814;SDS011;59659;41.520;23.794;2022-08-20T02:02:13;13.93;;;7.43;;
71814;SDS011;59659;41.520;23.794;2022-08-20T02:03:25;10.67;;;7.93;;
71814;SDS011;59659;41.520;23.794;2022-08-20T02:04:37;11.57;;;7.50;;
71814;SDS011;59659;41.520;23.794;2022-08-20T02:05:49;13.83;;;7.40;;
71814;SDS011;59659;41.520;23.794;2022-08-20T02:07:01;15.30;;;7.70;;
71814;SDS011;59659;41.520;23.794;2022-08-20T02:08:13;14.90;;;8.30;;
71814;SDS011;59659;41.520;23.794;2022-08-20T02:09:25;11.40;;;7.10;;
71814;SDS011;59659;41.520;23.794;2022-08-20T02:10:37;15.00;;;7.77;;
71814;SDS011;59659;41.520;23.794;2022-08-20T02:11:48;11.33;;;7.87;;
71814;SDS011;59659;41.520;23.794;2022-08-20T02:13:00;14.03;;;7.40;;
71814;SDS011;59659;41.520;23.794;2022-08-20T02:14:12;10.93;;;7.67;;
71814;SDS011;59659;41.520;23.794;2022-08-20T02:15:24;13.97;;;7.87;;
71814;SDS011;59659;41.520;23.794;2022-08-20T02:16:47;10.80;;;7.93;;
71814;SDS011;59659;41.520;23.794;2022-08-20T02:18:06;10.30;;;7.43;;
71814;SDS011;59659;41.520;23.794;2022-08-20T02:19:23;14.73;;;8.60;;
71814;SDS011;59659;41.520;23.794;2022-08-20T02:20:35;10.33;;;7.13;;
71814;SDS011;59659;41.520;23.794;2022-08-20T02:21:51;12.40;;;7.27;;
71814;SDS011;59659;41.520;23.794;2022-08-20T02:23:03;10.90;;;7.30;;
71814;SDS011;59659;41.520;23.794;2022-08-20T02:24:15;14.13;;;7.43;;
71814;SDS011;59659;41.520;23.794;2022-08-20T02:25:28;10.90;;;7.40;;
71814;SDS011;59659;41.520;23.794;2022-08-20T02:26:40;11.37;;;7.53;;
71814;SDS011;59659;41.520;23.794;2022-08-20T02:27:54;11.93;;;7.93;;
71814;SDS011;59659;41.520;23.794;2022-08-20T02:29:07;13.07;;;8.10;;
71814;SDS011;59659;41.520;23.794;2022-08-20T02:30:21;14.87;;;7.20;;
71814;SDS011;59659;41.520;23.794;2022-08-20T02:31:39;15.23;;;8.60;;
71814;SDS011;59659;41.520;23.794;2022-08-20T02:33:12;14.13;;;7.43;;
71814;SDS011;59659;41.520;23.794;2022-08-20T02:34:24;10.57;;;7.67;;
71814;SDS011;59659;41.520;23.794;2022-08-20T02:35:36;12.90;;;7.87;;
71814;SDS011;59659;41.520;23.794;2022-08-20T02:36:48;12.07;;;7.43;;
71814;SDS011;59659;41.520;23.794;2022-08-20T02:37:59;14.67;;;7.60;;
71814;SDS011;59659;41.520;23.794;2022-08-20T02:39:11;14.77;;;7.57;;
71814;SDS011;59659;41.520;23.794;2022-08-20T02:40:24;13.07;;;7.20;;
71814;SDS011;59659;41.520;23.794;2022-08-20T02:41:41;12.27;;;7.57;;
71814;SDS011;59659;41.520;23.794;2022-08-20T02:42:53;11.20;;;7.30;;
71814;SDS011;59659;41.520;23.794;2022-08-20T02:44:05;12.60;;;6.77;;
71814;SDS011;59659;41.520;23.794;2022-08-20T02:45:16;12.60;;;7.13;;
71814;SDS011;59659;41.520;23.794;2022-08-20T02:46:29;13.57;;;7.83;;
71814;SDS011;59659;41.520;23.794;2022-08-20T02:47:41;11.43;;;6.53;;
71814;SDS011;59659;41.520;23.794;2022-08-20T02:48:54;11.13;;;7.30;;
71814;SDS011;59659;41.520;23.794;2022-08-20T02:50:09;8.97;;;6.80;;
71814;SDS011;59659;41.520;23.794;2022-08-20T02:51:21;17.77;;;7.37;;
71814;SDS011;59659;41.520;23.794;2022-08-20T02:52:41;12.00;;;7.03;;
71814;SDS011;59659;41.520;23.794;2022-08-20T02:54:02;10.57;;;7.67;;
71814;SDS011;59659;41.520;23.794;2022-08-20T02:55:13;15.50;;;7.77;;
71814;SDS011;59659;41.520;23.794;2022-08-20T02:56:38;10.60;;;6.90;;
71814;SDS011;59659;41.520;23.794;2022-08-20T02:57:50;12.03;;;8.20;;
71814;SDS011;59659;41.520;23.794;2022-08-20T02:59:04;11.50;;;7.97;;
71814;SDS011;59659;41.520;23.794;2022-08-20T03:00:17;11.83;;;7.97;;
71814;SDS011;59659;41.520;23.794;2022-08-20T03:01:30;12.37;;;7.67;;
71814;SDS011;59659;41.520;23.794;2022-08-20T03:02:42;12.10;;;7.90;;
71814;SDS011;59659;41.520;23.794;2022-08-20T03:03:53;13.33;;;8.57;;
71814;SDS011;59659;41.520;23.794;2022-08-20T03:05:09;11.83;;;7.13;;
71814;SDS011;59659;41.520;23.794;2022-08-20T03:06:21;11.93;;;8.27;;
71814;SDS011;59659;41.520;23.794;2022-08-20T03:07:39;14.23;;;7.87;;
71814;SDS011;59659;41.520;23.794;2022-08-20T03:08:50;13.57;;;7.97;;
71814;SDS011;59659;41.520;23.794;2022-08-20T03:10:02;12.33;;;7.17;;
71814;SDS011;59659;41.520;23.794;2022-08-20T03:11:14;14.57;;;8.37;;
71814;SDS011;59659;41.520;23.794;2022-08-20T03:12:26;10.53;;;7.27;;
71814;SDS011;59659;41.520;23.794;2022-08-20T03:13:37;11.37;;;7.50;;
71814;SDS011;59659;41.520;23.794;2022-08-20T03:14:49;14.97;;;8.50;;
71814;SDS011;59659;41.520;23.794;2022-08-20T03:16:01;11.17;;;8.30;;
71814;SDS011;59659;41.520;23.794;2022-08-20T03:17:13;13.00;;;8.40;;
71814;SDS011;59659;41.520;23.794;2022-08-20T03:18:25;12.00;;;7.60;;
71814;SDS011;59659;41.520;23.794;2022-08-20T03:19:37;19.17;;;9.20;;
71814;SDS011;59659;41.520;23.794;2022-08-20T03:20:48;13.83;;;8.90;;
71814;SDS011;59659;41.520;23.794;2022-08-20T03:22:02;11.27;;;7.67;;
71814;SDS011;59659;41.520;23.794;2022-08-20T03:23:14;13.57;;;8.10;;
71814;SDS011;59659;41.520;23.794;2022-08-20T03:24:25;12.70;;;7.80;;
71814;SDS011;59659;41.520;23.794;2022-08-20T03:25:37;13.97;;;7.70;;
71814;SDS011;59659;41.520;23.794;2022-08-20T03:26:48;13.50;;;8.30;;
71814;SDS011;59659;41.520;23.794;2022-08-20T03:28:00;13.73;;;8.07;;
71814;SDS011;59659;41.520;23.794;2022-08-20T03:29:12;11.83;;;7.23;;
71814;SDS011;59659;41.520;23.794;2022-08-20T03:30:25;11.97;;;7.63;;
71814;SDS011;59659;41.520;23.794;2022-08-20T03:31:36;12.20;;;8.17;;
71814;SDS011;59659;41.520;23.794;2022-08-20T03:32:48;13.23;;;7.63;;
71814;SDS011;59659;41.520;23.794;2022-08-20T03:33:59;12.63;;;7.30;;
71814;SDS011;59659;41.520;23.794;2022-08-20T03:35:12;12.57;;;8.47;;
71814;SDS011;59659;41.520;23.794;2022-08-20T03:36:24;10.57;;;7.47;;
71814;SDS011;59659;41.520;23.794;2022-08-20T03:37:39;9.93;;;7.43;;
71814;SDS011;59659;41.520;23.794;2022-08-20T03:39:00;11.07;;;7.73;;
71814;SDS011;59659;41.520;23.794;2022-08-20T03:40:14;14.87;;;8.63;;
71814;SDS011;59659;41.520;23.794;2022-08-20T03:41:26;12.50;;;7.83;;
71814;SDS011;59659;41.520;23.794;2022-08-20T03:42:38;15.37;;;8.97;;
71814;SDS011;59659;41.520;23.794;2022-08-20T03:43:50;10.87;;;7.37;;
71814;SDS011;59659;41.520;23.794;2022-08-20T03:45:02;12.90;;;8.27;;
71814;SDS011;59659;41.520;23.794;2022-08-20T03:46:14;14.47;;;8.27;;
71814;SDS011;59659;41.520;23.794;2022-08-20T03:47:33;17.90;;;8.23;;
71814;SDS011;59659;41.520;23.794;2022-08-20T03:48:46;11.67;;;8.40;;
71814;SDS011;59659;41.520;23.794;2022-08-20T03:50:00;16.67;;;8.77;;
71814;SDS011;59659;41.520;23.794;2022-08-20T03:51:12;18.43;;;9.13;;
71814;SDS011;59659;41.520;23.794;2022-08-20T03:52:24;12.53;;;8.83;;
71814;SDS011;59659;41.520;23.794;2022-08-20T03:53:36;14.43;;;8.77;;
71814;SDS011;59659;41.520;23.794;2022-08-20T03:54:47;14.07;;;8.47;;
71814;SDS011;59659;41.520;23.794;2022-08-20T03:56:00;13.20;;;8.43;;
71814;SDS011;59659;41.520;23.794;2022-08-20T03:57:14;17.60;;;8.20;;
71814;SDS011;59659;41.520;23.794;2022-08-20T03:58:27;16.50;;;8.57;;
71814;SDS011;59659;41.520;23.794;2022-08-20T03:59:46;12.83;;;8.93;;
71814;SDS011;59659;41.520;23.794;2022-08-20T04:01:05;13.80;;;8.23;;
71814;SDS011;59659;41.520;23.794;2022-08-20T04:02:17;11.93;;;8.17;;
71814;SDS011;59659;41.520;23.794;2022-08-20T04:03:28;14.93;;;9.47;;
71814;SDS011;59659;41.520;23.794;2022-08-20T04:04:40;14.13;;;8.67;;
71814;SDS011;59659;41.520;23.794;2022-08-20T04:05:52;13.13;;;9.20;;
71814;SDS011;59659;41.520;23.794;2022-08-20T04:07:13;14.90;;;8.53;;
71814;SDS011;59659;41.520;23.794;2022-08-20T04:08:27;13.63;;;8.77;;
71814;SDS011;59659;41.520;23.794;2022-08-20T04:09:39;18.40;;;9.13;;
71814;SDS011;59659;41.520;23.794;2022-08-20T04:10:52;12.00;;;8.50;;
71814;SDS011;59659;41.520;23.794;2022-08-20T04:12:04;15.13;;;10.10;;
71814;SDS011;59659;41.520;23.794;2022-08-20T04:13:17;15.60;;;9.77;;
71814;SDS011;59659;41.520;23.794;2022-08-20T04:14:33;15.73;;;9.57;;
71814;SDS011;59659;41.520;23.794;2022-08-20T04:15:46;16.43;;;7.97;;
71814;SDS011;59659;41.520;23.794;2022-08-20T04:17:07;12.77;;;7.63;;
71814;SDS011;59659;41.520;23.794;2022-08-20T04:18:18;14.10;;;9.23;;
71814;SDS011;59659;41.520;23.794;2022-08-20T04:19:33;13.10;;;8.83;;
71814;SDS011;59659;41.520;23.794;2022-08-20T04:20:48;15.30;;;8.87;;
71814;SDS011;59659;41.520;23.794;2022-08-20T04:22:00;14.23;;;8.33;;
71814;SDS011;59659;41.520;23.794;2022-08-20T04:23:12;11.57;;;8.33;;
71814;SDS011;59659;41.520;23.794;2022-08-20T04:24:25;13.23;;;8.17;;
71814;SDS011;59659;41.520;23.794;2022-08-20T04:25:43;15.17;;;9.33;;
71814;SDS011;59659;41.520;23.794;2022-08-20T04:26:55;11.13;;;7.90;;
71814;SDS011;59659;41.520;23.794;2022-08-20T04:28:13;13.07;;;8.27;;
71814;SDS011;59659;41.520;23.794;2022-08-20T04:29:25;13.83;;;9.20;;
71814;SDS011;59659;41.520;23.794;2022-08-20T04:30:42;11.30;;;8.00;;
71814;SDS011;59659;41.520;23.794;2022-08-20T04:32:05;14.60;;;8.00;;
71814;SDS011;59659;41.520;23.794;2022-08-20T04:33:18;9.57;;;7.13;;
71814;SDS011;59659;41.520;23.794;2022-08-20T04:34:44;14.63;;;7.97;;
71814;SDS011;59659;41.520;23.794;2022-08-20T04:35:58;13.20;;;7.73;;
71814;SDS011;59659;41.520;23.794;2022-08-20T04:37:13;12.67;;;7.73;;
71814;SDS011;59659;41.520;23.794;2022-08-20T04:38:27;15.50;;;8.93;;
71814;SDS011;59659;41.520;23.794;2022-08-20T04:40:03;12.47;;;8.80;;
71814;SDS011;59659;41.520;23.794;2022-08-20T04:41:33;13.40;;;8.93;;
71814;SDS011;59659;41.520;23.794;2022-08-20T04:42:45;13.67;;;9.27;;
71814;SDS011;59659;41.520;23.794;2022-08-20T04:44:03;25.40;;;10.17;;
71814;SDS011;59659;41.520;23.794;2022-08-20T04:45:14;16.90;;;8.73;;
71814;SDS011;59659;41.520;23.794;2022-08-20T04:46:26;15.40;;;9.20;;
71814;SDS011;59659;41.520;23.794;2022-08-20T04:47:39;31.03;;;10.47;;
71814;SDS011;59659;41.520;23.794;2022-08-20T04:48:52;17.40;;;8.60;;
71814;SDS011;59659;41.520;23.794;2022-08-20T04:50:06;20.53;;;9.03;;
71814;SDS011;59659;41.520;23.794;2022-08-20T04:51:20;14.17;;;8.73;;
71814;SDS011;59659;41.520;23.794;2022-08-20T04:52:34;14.90;;;9.33;;
71814;SDS011;59659;41.520;23.794;2022-08-20T04:53:46;13.37;;;7.50;;
71814;SDS011;59659;41.520;23.794;2022-08-20T04:55:03;18.13;;;8.37;;
71814;SDS011;59659;41.520;23.794;2022-08-20T04:56:15;14.17;;;8.03;;
71814;SDS011;59659;41.520;23.794;2022-08-20T04:57:29;21.13;;;9.83;;
71814;SDS011;59659;41.520;23.794;2022-08-20T04:58:40;15.13;;;9.17;;
71814;SDS011;59659;41.520;23.794;2022-08-20T04:59:57;16.87;;;8.37;;
71814;SDS011;59659;41.520;23.794;2022-08-20T05:01:10;14.20;;;8.43;;
71814;SDS011;59659;41.520;23.794;2022-08-20T05:02:22;12.63;;;8.17;;
71814;SDS011;59659;41.520;23.794;2022-08-20T05:03:34;15.77;;;9.03;;
71814;SDS011;59659;41.520;23.794;2022-08-20T05:04:45;10.40;;;7.60;;
71814;SDS011;59659;41.520;23.794;2022-08-20T05:05:58;15.00;;;8.20;;
71814;SDS011;59659;41.520;23.794;2022-08-20T05:07:11;14.00;;;8.33;;
71814;SDS011;59659;41.520;23.794;2022-08-20T05:08:24;12.13;;;7.90;;
71814;SDS011;59659;41.520;23.794;2022-08-20T05:09:35;13.27;;;8.73;;
71814;SDS011;59659;41.520;23.794;2022-08-20T05:10:54;15.33;;;8.90;;
71814;SDS011;59659;41.520;23.794;2022-08-20T05:12:26;13.33;;;8.53;;
71814;SDS011;59659;41.520;23.794;2022-08-20T05:13:37;15.00;;;8.30;;
71814;SDS011;59659;41.520;23.794;2022-08-20T05:14:49;23.13;;;7.97;;
71814;SDS011;59659;41.520;23.794;2022-08-20T05:16:00;11.23;;;7.30;;
71814;SDS011;59659;41.520;23.794;2022-08-20T05:17:15;22.93;;;9.13;;
71814;SDS011;59659;41.520;23.794;2022-08-20T05:18:27;13.03;;;8.33;;
71814;SDS011;59659;41.520;23.794;2022-08-20T05:19:43;15.37;;;9.20;;
71814;SDS011;59659;41.520;23.794;2022-08-20T05:20:56;13.60;;;8.37;;
71814;SDS011;59659;41.520;23.794;2022-08-20T05:22:16;12.80;;;7.83;;
71814;SDS011;59659;41.520;23.794;2022-08-20T05:23:29;11.23;;;7.43;;
71814;SDS011;59659;41.520;23.794;2022-08-20T05:24:40;11.50;;;7.67;;
71814;SDS011;59659;41.520;23.794;2022-08-20T05:25:52;10.63;;;7.27;;
71814;SDS011;59659;41.520;23.794;2022-08-20T05:27:03;13.37;;;8.17;;
71814;SDS011;59659;41.520;23.794;2022-08-20T05:28:17;14.20;;;8.23;;
71814;SDS011;59659;41.520;23.794;2022-08-20T05:29:28;15.90;;;8.47;;
71814;SDS011;59659;41.520;23.794;2022-08-20T05:30:41;12.93;;;7.87;;
71814;SDS011;59659;41.520;23.794;2022-08-20T05:31:53;10.63;;;7.07;;
71814;SDS011;59659;41.520;23.794;2022-08-20T05:33:06;13.33;;;8.13;;
71814;SDS011;59659;41.520;23.794;2022-08-20T05:34:18;10.80;;;7.80;;
71814;SDS011;59659;41.520;23.794;2022-08-20T05:35:30;12.33;;;8.23;;
71814;SDS011;59659;41.520;23.794;2022-08-20T05:36:45;12.23;;;7.53;;
71814;SDS011;59659;41.520;23.794;2022-08-20T05:37:59;14.63;;;8.57;;
71814;SDS011;59659;41.520;23.794;2022-08-20T05:39:11;12.63;;;7.63;;
71814;SDS011;59659;41.520;23.794;2022-08-20T05:40:23;13.23;;;8.27;;
71814;SDS011;59659;41.520;23.794;2022-08-20T05:41:35;11.23;;;8.20;;
71814;SDS011;59659;41.520;23.794;2022-08-20T05:42:48;10.23;;;7.43;;
71814;SDS011;59659;41.520;23.794;2022-08-20T05:44:00;15.37;;;8.63;;
71814;SDS011;59659;41.520;23.794;2022-08-20T05:45:11;13.13;;;7.53;;
71814;SDS011;59659;41.520;23.794;2022-08-20T05:46:23;13.07;;;8.53;;
71814;SDS011;59659;41.520;23.794;2022-08-20T05:47:37;13.27;;;7.83;;
71814;SDS011;59659;41.520;23.794;2022-08-20T05:49:10;11.33;;;7.93;;
71814;SDS011;59659;41.520;23.794;2022-08-20T05:50:22;11.33;;;7.77;;
71814;SDS011;59659;41.520;23.794;2022-08-20T05:51:34;10.33;;;7.70;;
71814;SDS011;59659;41.520;23.794;2022-08-20T05:52:47;18.10;;;8.87;;
71814;SDS011;59659;41.520;23.794;2022-08-20T05:53:58;14.50;;;8.70;;
71814;SDS011;59659;41.520;23.794;2022-08-20T05:55:10;16.13;;;8.80;;
71814;SDS011;59659;41.520;23.794;2022-08-20T05:56:23;13.13;;;7.97;;
71814;SDS011;59659;41.520;23.794;2022-08-20T05:57:37;12.40;;;8.57;;
71814;SDS011;59659;41.520;23.794;2022-08-20T05:58:49;12.50;;;7.87;;
71814;SDS011;59659;41.520;23.794;2022-08-20T06:00:04;14.07;;;9.40;;
71814;SDS011;59659;41.520;23.794;2022-08-20T06:01:16;12.73;;;8.93;;
71814;SDS011;59659;41.520;23.794;2022-08-20T06:02:28;11.63;;;8.27;;
71814;SDS011;59659;41.520;23.794;2022-08-20T06:03:58;14.43;;;8.27;;
71814;SDS011;59659;41.520;23.794;2022-08-20T06:05:28;11.50;;;8.33;;
71814;SDS011;59659;41.520;23.794;2022-08-20T06:06:39;15.97;;;8.87;;
71814;SDS011;59659;41.520;23.794;2022-08-20T06:07:57;16.43;;;8.33;;
71814;SDS011;59659;41.520;23.794;2022-08-20T06:09:19;14.30;;;8.30;;
71814;SDS011;59659;41.520;23.794;2022-08-20T06:10:42;14.57;;;8.50;;
71814;SDS011;59659;41.520;23.794;2022-08-20T06:11:54;12.90;;;7.07;;
71814;SDS011;59659;41.520;23.794;2022-08-20T06:13:09;15.63;;;7.77;;
71814;SDS011;59659;41.520;23.794;2022-08-20T06:14:24;13.33;;;7.63;;
71814;SDS011;59659;41.520;23.794;2022-08-20T06:15:36;12.63;;;8.53;;
71814;SDS011;59659;41.520;23.794;2022-08-20T06:16:48;13.17;;;8.07;;
71814;SDS011;59659;41.520;23.794;2022-08-20T06:18:09;12.83;;;7.63;;
71814;SDS011;59659;41.520;23.794;2022-08-20T06:19:38;16.30;;;8.20;;
71814;SDS011;59659;41.520;23.794;2022-08-20T06:20:54;14.10;;;8.70;;
71814;SDS011;59659;41.520;23.794;2022-08-20T06:22:06;12.90;;;7.80;;
71814;SDS011;59659;41.520;23.794;2022-08-20T06:23:32;16.97;;;8.20;;
71814;SDS011;59659;41.520;23.794;2022-08-20T06:25:04;12.97;;;8.53;;
71814;SDS011;59659;41.520;23.794;2022-08-20T06:26:16;11.27;;;8.20;;
71814;SDS011;59659;41.520;23.794;2022-08-20T06:27:41;11.83;;;7.27;;
71814;SDS011;59659;41.520;23.794;2022-08-20T06:28:53;12.13;;;7.67;;
71814;SDS011;59659;41.520;23.794;2022-08-20T06:30:05;12.17;;;7.37;;
71814;SDS011;59659;41.520;23.794;2022-08-20T06:31:17;12.03;;;7.03;;
71814;SDS011;59659;41.520;23.794;2022-08-20T06:32:29;17.53;;;8.47;;
71814;SDS011;59659;41.520;23.794;2022-08-20T06:33:43;14.47;;;8.90;;
71814;SDS011;59659;41.520;23.794;2022-08-20T06:34:54;11.60;;;7.70;;
71814;SDS011;59659;41.520;23.794;2022-08-20T06:36:06;15.77;;;8.00;;
71814;SDS011;59659;41.520;23.794;2022-08-20T06:38:30;11.50;;;7.93;;
71814;SDS011;59659;41.520;23.794;2022-08-20T06:39:49;12.13;;;7.83;;
71814;SDS011;59659;41.520;23.794;2022-08-20T06:41:02;11.93;;;7.97;;
71814;SDS011;59659;41.520;23.794;2022-08-20T06:42:14;11.73;;;8.27;;
71814;SDS011;59659;41.520;23.794;2022-08-20T06:43:31;13.27;;;7.00;;
71814;SDS011;59659;41.520;23.794;2022-08-20T06:44:44;13.97;;;8.07;;
71814;SDS011;59659;41.520;23.794;2022-08-20T06:46:00;13.23;;;7.97;;
71814;SDS011;59659;41.520;23.794;2022-08-20T06:47:12;11.73;;;7.73;;
71814;SDS011;59659;41.520;23.794;2022-08-20T06:48:24;12.53;;;7.27;;
71814;SDS011;59659;41.520;23.794;2022-08-20T06:49:36;14.90;;;7.90;;
71814;SDS011;59659;41.520;23.794;2022-08-20T06:50:47;16.00;;;7.57;;
71814;SDS011;59659;41.520;23.794;2022-08-20T06:51:59;13.50;;;7.90;;
71814;SDS011;59659;41.520;23.794;2022-08-20T06:53:15;16.10;;;8.63;;
71814;SDS011;59659;41.520;23.794;2022-08-20T06:54:27;13.03;;;8.07;;
71814;SDS011;59659;41.520;23.794;2022-08-20T06:55:40;14.40;;;8.13;;
71814;SDS011;59659;41.520;23.794;2022-08-20T06:56:59;12.97;;;8.00;;
71814;SDS011;59659;41.520;23.794;2022-08-20T06:58:11;12.57;;;7.73;;
71814;SDS011;59659;41.520;23.794;2022-08-20T06:59:43;11.47;;;7.50;;
71814;SDS011;59659;41.520;23.794;2022-08-20T07:01:05;13.63;;;7.63;;
71814;SDS011;59659;41.520;23.794;2022-08-20T07:02:20;11.93;;;7.70;;
71814;SDS011;59659;41.520;23.794;2022-08-20T07:03:41;10.17;;;6.97;;
71814;SDS011;59659;41.520;23.794;2022-08-20T07:05:06;8.77;;;7.00;;
71814;SDS011;59659;41.520;23.794;2022-08-20T07:06:18;10.90;;;7.77;;
71814;SDS011;59659;41.520;23.794;2022-08-20T07:07:29;11.90;;;7.37;;
71814;SDS011;59659;41.520;23.794;2022-08-20T07:08:41;10.33;;;7.67;;
71814;SDS011;59659;41.520;23.794;2022-08-20T07:09:59;9.83;;;6.93;;
71814;SDS011;59659;41.520;23.794;2022-08-20T07:11:11;10.07;;;7.23;;
71814;SDS011;59659;41.520;23.794;2022-08-20T07:12:22;13.37;;;7.40;;
71814;SDS011;59659;41.520;23.794;2022-08-20T07:13:35;10.37;;;7.40;;
71814;SDS011;59659;41.520;23.794;2022-08-20T07:14:48;9.87;;;7.33;;
71814;SDS011;59659;41.520;23.794;2022-08-20T07:15:59;11.87;;;7.33;;
71814;SDS011;59659;41.520;23.794;2022-08-20T07:17:11;10.40;;;6.50;;
71814;SDS011;59659;41.520;23.794;2022-08-20T07:18:22;10.70;;;7.43;;
71814;SDS011;59659;41.520;23.794;2022-08-20T07:19:39;11.47;;;7.00;;
71814;SDS011;59659;41.520;23.794;2022-08-20T07:20:50;9.43;;;6.78;;
71814;SDS011;59659;41.520;23.794;2022-08-20T07:22:05;9.97;;;6.63;;
71814;SDS011;59659;41.520;23.794;2022-08-20T07:23:16;10.70;;;7.20;;
71814;SDS011;59659;41.520;23.794;2022-08-20T07:24:28;11.77;;;6.80;;
71814;SDS011;59659;41.520;23.794;2022-08-20T07:25:43;11.00;;;6.05;;